Time;durP1;ratioP1;P1;durP2;ratioP2;P2;SDS_P1;SDS_P2;PMS_P1;PMS_P2;Temp;Humidity;BMP_temperature;BMP_pressure;BME280_temperature;BME280_humidity;BME280_pressure;Samples;Min_cycle;Max_cycle;Signal;HPM_P1;HPM_P2
2022/02/04 00:04:30;;;;;;;81.30;43.33;;;2.20;99.90;;;;;;4996625;28;20183;-91
2022/02/04 00:10:03;;;;;;;77.18;44.42;;;2.30;99.90;;;;;;4998356;28;20231;-92
2022/02/04 00:28:05;;;;;;;69.00;39.10;;;2.40;99.90;;;;;;4994967;28;20631;-91
2022/02/04 00:30:39;;;;;;;74.03;42.35;;;2.40;99.90;;;;;;4994175;28;20203;-89
2022/02/04 00:33:07;;;;;;;72.30;39.95;;;2.40;99.90;;;;;;4994342;28;20188;-89
2022/02/04 00:38:28;;;;;;;91.45;43.80;;;2.40;99.90;;;;;;4995295;28;20168;-90
2022/02/04 00:41:00;;;;;;;80.95;40.17;;;2.40;99.90;;;;;;4998942;28;20798;-91
2022/02/04 00:43:28;;;;;;;62.92;38.08;;;2.40;99.90;;;;;;5006311;28;20168;-90
2022/02/04 00:46:04;;;;;;;66.65;34.92;;;2.30;99.90;;;;;;5018490;28;20192;-91
2022/02/04 00:48:49;;;;;;;65.55;33.45;;;2.30;99.90;;;;;;4998620;28;20187;-89
2022/02/04 00:51:29;;;;;;;110.43;47.33;;;2.30;99.90;;;;;;4997584;28;20215;-89
2022/02/04 00:54:15;;;;;;;96.28;44.35;;;2.30;99.90;;;;;;4997000;28;20249;-91
2022/02/04 01:25:55;;;;;;;68.13;36.35;;;2.20;99.90;;;;;;5001725;28;20552;-89
2022/02/04 01:26:37;;;;;;;55.15;30.15;;;2.10;99.90;;;;;;4999785;28;20179;-91
2022/02/04 01:29:04;;;;;;;44.00;25.60;;;2.10;99.90;;;;;;5005921;28;20642;-90
2022/02/04 01:31:32;;;;;;;47.28;26.00;;;2.10;99.90;;;;;;5009272;28;20196;-90
2022/02/04 01:33:57;;;;;;;46.38;26.90;;;2.10;99.90;;;;;;5010873;28;20236;-90
2022/02/04 01:36:23;;;;;;;43.70;24.87;;;2.10;99.90;;;;;;5000967;28;20200;-89
2022/02/04 01:38:49;;;;;;;49.80;26.23;;;2.10;99.90;;;;;;5001587;28;20191;-89
2022/02/04 01:41:15;;;;;;;39.67;23.90;;;2.10;99.90;;;;;;5005357;28;20195;-91
2022/02/04 01:43:42;;;;;;;44.20;24.98;;;2.10;99.90;;;;;;5006886;28;20499;-91
2022/02/04 01:46:10;;;;;;;157.55;61.55;;;2.10;99.90;;;;;;5000468;28;20654;-88
2022/02/04 01:48:37;;;;;;;74.90;36.08;;;2.10;99.90;;;;;;4996172;28;20184;-90
2022/02/04 01:51:05;;;;;;;54.85;30.52;;;2.10;99.90;;;;;;4996099;28;20196;-91
2022/02/04 01:53:31;;;;;;;53.50;27.80;;;2.10;99.90;;;;;;4997016;28;20180;-89
2022/02/04 01:56:08;;;;;;;57.60;29.60;;;2.10;99.90;;;;;;4996560;28;20226;-89
2022/02/04 01:58:35;;;;;;;49.53;27.05;;;2.00;99.90;;;;;;4995941;28;20427;-89
2022/02/04 02:01:02;;;;;;;44.35;26.70;;;2.00;99.90;;;;;;4996341;28;20665;-90
2022/02/04 02:03:28;;;;;;;40.13;24.63;;;2.00;99.90;;;;;;4995672;28;20217;-89
2022/02/04 02:05:58;;;;;;;37.33;24.00;;;2.00;99.90;;;;;;4995657;28;20913;-91
2022/02/04 02:08:24;;;;;;;41.20;24.05;;;2.00;99.90;;;;;;4996407;28;20187;-91
2022/02/04 02:10:51;;;;;;;43.10;23.40;;;2.00;99.90;;;;;;4995872;28;20200;-89
2022/02/04 02:13:29;;;;;;;35.92;22.50;;;1.90;99.90;;;;;;4996028;28;20184;-90
2022/02/04 02:35:19;;;;;;;35.47;20.10;;;1.90;99.90;;;;;;4996341;28;20226;-91
2022/02/04 02:51:43;;;;;;;43.30;25.50;;;1.60;99.90;;;;;;4936413;29;20190;-92
2022/02/04 02:54:32;;;;;;;49.85;25.48;;;1.60;99.90;;;;;;4962709;28;20258;-89
2022/02/04 02:59:37;;;;;;;35.78;22.00;;;1.60;99.90;;;;;;4996670;28;20282;-90
2022/02/04 03:02:03;;;;;;;36.50;23.42;;;1.60;99.90;;;;;;4995042;28;20656;-89
2022/02/04 03:04:28;;;;;;;34.60;22.25;;;1.60;99.90;;;;;;4993896;28;20222;-91
2022/02/04 03:06:54;;;;;;;34.43;23.47;;;1.60;99.90;;;;;;4994801;28;20544;-89
2022/02/04 03:09:19;;;;;;;37.90;23.33;;;1.60;99.90;;;;;;4996223;28;20693;-89
2022/02/04 03:11:45;;;;;;;40.00;23.70;;;1.60;99.90;;;;;;4999010;28;20172;-89
2022/02/04 03:14:12;;;;;;;41.65;23.65;;;1.60;99.90;;;;;;4996335;28;20270;-91
2022/02/04 03:16:38;;;;;;;46.83;24.70;;;1.60;99.90;;;;;;4995415;28;20175;-92
2022/02/04 03:19:06;;;;;;;37.22;24.38;;;1.60;99.90;;;;;;4995836;28;20188;-89
2022/02/04 03:21:39;;;;;;;39.70;25.10;;;1.60;99.90;;;;;;4995228;28;20203;-92
2022/02/04 03:24:10;;;;;;;39.05;25.55;;;1.60;99.90;;;;;;4994785;28;20196;-91
2022/02/04 03:29:03;;;;;;;44.75;25.67;;;1.60;99.90;;;;;;5008658;28;20198;-91
2022/02/04 03:31:35;;;;;;;42.45;25.85;;;1.50;99.90;;;;;;4996216;28;20253;-91
2022/02/04 03:34:02;;;;;;;44.88;25.67;;;1.50;99.90;;;;;;4994244;28;20362;-92
2022/02/04 03:36:28;;;;;;;40.67;26.02;;;1.50;99.90;;;;;;4994500;28;20571;-90
2022/02/04 03:38:54;;;;;;;41.83;26.80;;;1.40;99.90;;;;;;4994917;28;20188;-89
2022/02/04 03:41:20;;;;;;;47.90;29.03;;;1.40;99.90;;;;;;4994362;28;20461;-89
2022/02/04 03:43:45;;;;;;;47.73;27.63;;;1.40;99.90;;;;;;4994335;28;20274;-91
2022/02/04 03:46:11;;;;;;;46.43;28.10;;;1.30;99.90;;;;;;4994346;28;20558;-91
2022/02/04 03:48:37;;;;;;;45.33;28.67;;;1.30;99.90;;;;;;4995135;28;20408;-91
2022/02/04 03:51:03;;;;;;;53.37;28.90;;;1.30;99.90;;;;;;4994130;28;20196;-91
2022/02/04 03:53:29;;;;;;;42.33;26.73;;;1.30;99.90;;;;;;4994545;28;20247;-89
2022/02/04 03:55:55;;;;;;;50.03;29.42;;;1.30;99.90;;;;;;4994038;28;20203;-91
2022/02/04 03:58:21;;;;;;;46.83;28.67;;;1.20;99.90;;;;;;4994150;28;20672;-92
2022/02/04 04:00:47;;;;;;;49.53;27.57;;;1.20;99.90;;;;;;4996458;28;20192;-89
2022/02/04 04:03:12;;;;;;;48.90;28.43;;;1.20;99.90;;;;;;5001835;28;20190;-91
2022/02/04 04:05:44;;;;;;;48.37;27.10;;;1.20;99.90;;;;;;5011705;28;20480;-90
2022/02/04 04:08:10;;;;;;;38.80;25.15;;;1.20;99.90;;;;;;5011100;28;20199;-89
2022/02/04 04:10:41;;;;;;;42.50;26.37;;;1.20;99.90;;;;;;5011504;28;20200;-91
2022/02/04 04:13:07;;;;;;;50.60;27.42;;;1.20;99.90;;;;;;5011885;28;20458;-90
2022/02/04 04:15:33;;;;;;;48.17;27.20;;;1.20;99.90;;;;;;5014149;28;20239;-92
2022/02/04 04:17:59;;;;;;;44.40;28.67;;;1.20;99.90;;;;;;5007561;28;20168;-90
2022/02/04 04:20:26;;;;;;;41.10;28.07;;;1.20;99.90;;;;;;4998312;28;20416;-89
2022/02/04 04:22:54;;;;;;;47.05;29.08;;;1.20;99.90;;;;;;4998145;28;20901;-89
2022/02/04 04:25:20;;;;;;;42.67;27.70;;;1.30;99.90;;;;;;4997937;28;20281;-91
2022/02/04 04:27:47;;;;;;;37.38;23.45;;;1.30;99.90;;;;;;4997927;28;20694;-92
2022/02/04 04:30:18;;;;;;;43.90;25.83;;;1.30;99.90;;;;;;4998132;28;20204;-90
2022/02/04 04:32:45;;;;;;;48.00;28.35;;;1.30;99.90;;;;;;4997506;28;20172;-89
2022/02/04 04:35:13;;;;;;;38.22;23.90;;;1.30;99.90;;;;;;4997502;28;20223;-89
2022/02/04 04:37:48;;;;;;;46.38;26.45;;;1.40;99.90;;;;;;4997810;28;20187;-89
2022/02/04 05:27:05;;;;;;;27.85;18.23;;;1.80;99.90;;;;;;5008724;28;20206;-90
2022/02/04 05:29:10;;;;;;;31.77;19.65;;;1.80;99.90;;;;;;5010642;28;20230;-90
2022/02/04 05:31:36;;;;;;;27.35;18.13;;;1.80;99.90;;;;;;4998272;28;20204;-89
2022/02/04 05:34:02;;;;;;;28.10;18.60;;;1.80;99.90;;;;;;4997381;28;20219;-89
2022/02/04 05:36:30;;;;;;;29.45;18.55;;;1.80;99.90;;;;;;5001986;28;20428;-90
2022/02/04 05:38:56;;;;;;;26.80;18.67;;;1.80;99.90;;;;;;4997820;28;20188;-89
2022/02/04 05:41:30;;;;;;;37.33;20.53;;;1.80;99.90;;;;;;4996630;28;20665;-91
2022/02/04 05:43:59;;;;;;;31.10;18.48;;;1.80;99.90;;;;;;4996385;28;20420;-89
2022/02/04 05:46:29;;;;;;;24.60;18.17;;;1.90;99.90;;;;;;4998618;28;20199;-88
2022/02/04 05:48:57;;;;;;;28.52;18.17;;;1.90;99.90;;;;;;5001387;28;20251;-91
2022/02/04 05:54:07;;;;;;;31.15;18.67;;;1.90;99.90;;;;;;4997506;28;20361;-91
2022/02/04 05:56:58;;;;;;;25.40;17.98;;;1.90;99.90;;;;;;4995988;28;20215;-88
2022/02/04 06:00:21;;;;;;;23.77;16.42;;;1.90;99.90;;;;;;4995875;28;20184;-91
2022/02/04 06:02:24;;;;;;;24.95;17.13;;;1.90;99.90;;;;;;4990221;28;20274;-91
2022/02/04 06:04:57;;;;;;;28.98;17.00;;;1.80;99.90;;;;;;4995394;28;20567;-91
2022/02/04 06:07:31;;;;;;;26.02;16.10;;;1.80;99.90;;;;;;4995429;28;20234;-89
2022/02/04 06:10:51;;;;;;;30.27;18.75;;;1.80;99.90;;;;;;4993305;28;20255;-91
2022/02/04 06:13:15;;;;;;;31.58;19.20;;;1.80;99.90;;;;;;4993520;28;20196;-91
2022/02/04 06:23:47;;;;;;;28.85;18.80;;;1.90;99.90;;;;;;4996758;28;20242;-91
2022/02/04 06:26:12;;;;;;;29.60;18.73;;;1.90;99.90;;;;;;5016310;28;20248;-89
2022/02/04 06:28:41;;;;;;;28.80;17.87;;;2.00;99.90;;;;;;5013530;28;20215;-93
2022/02/04 06:31:07;;;;;;;33.47;18.38;;;2.00;99.90;;;;;;4987993;28;20870;-93
2022/02/04 06:33:33;;;;;;;24.67;18.45;;;2.10;99.90;;;;;;4981798;28;20185;-96
2022/02/04 06:35:59;;;;;;;33.72;18.33;;;2.20;99.90;;;;;;4994134;28;20221;-90
2022/02/04 06:38:26;;;;;;;30.70;18.90;;;2.20;99.90;;;;;;4995941;28;20184;-90
2022/02/04 06:40:52;;;;;;;28.30;19.55;;;2.30;99.90;;;;;;4994236;28;20303;-88
2022/02/04 06:43:18;;;;;;;27.50;19.60;;;2.30;99.90;;;;;;4977546;28;20192;-87
2022/02/04 06:45:48;;;;;;;30.77;20.30;;;2.30;99.90;;;;;;4999257;28;20670;-87
2022/02/04 06:48:14;;;;;;;33.25;19.77;;;2.30;99.90;;;;;;4993623;28;20464;-91
2022/02/04 06:50:40;;;;;;;37.80;22.67;;;2.30;99.90;;;;;;4996022;28;20239;-87
2022/02/04 06:53:06;;;;;;;35.23;22.47;;;2.30;99.90;;;;;;4990353;28;20202;-88
2022/02/04 06:55:32;;;;;;;38.00;24.00;;;2.20;99.90;;;;;;4992964;28;20227;-90
2022/02/04 06:57:59;;;;;;;37.15;23.98;;;2.20;99.90;;;;;;4990181;28;20212;-89
2022/02/04 07:00:27;;;;;;;42.67;26.98;;;2.20;99.90;;;;;;4991199;28;20567;-88
2022/02/04 07:02:53;;;;;;;42.80;26.98;;;2.20;99.90;;;;;;4998191;28;20196;-90
2022/02/04 07:05:21;;;;;;;41.67;27.33;;;2.20;99.90;;;;;;4992598;28;20199;-88
2022/02/04 07:08:11;;;;;;;48.95;27.50;;;2.20;99.90;;;;;;4990764;28;20195;-91
2022/02/04 07:10:57;;;;;;;41.05;28.80;;;2.20;99.90;;;;;;4987637;28;20326;-88
2022/02/04 07:13:29;;;;;;;44.47;30.15;;;2.20;99.90;;;;;;4994474;28;20184;-91
2022/02/04 07:16:09;;;;;;;43.28;28.15;;;2.20;99.90;;;;;;4990447;28;20763;-89
2022/02/04 07:21:03;;;;;;;45.60;30.17;;;2.30;99.90;;;;;;4995098;28;20195;-88
2022/02/04 07:23:29;;;;;;;47.78;31.90;;;2.30;99.90;;;;;;4988200;28;20184;-89
2022/02/04 07:25:56;;;;;;;43.22;30.98;;;2.30;99.90;;;;;;4987902;28;20216;-88
2022/02/04 07:28:23;;;;;;;49.80;32.03;;;2.30;99.90;;;;;;4996629;28;20593;-92
2022/02/04 07:30:49;;;;;;;45.17;33.38;;;2.40;99.90;;;;;;4992064;28;20203;-92
2022/02/04 07:33:21;;;;;;;52.55;32.22;;;2.40;99.90;;;;;;4993161;28;20207;-90
2022/02/04 07:41:03;;;;;;;46.88;32.78;;;2.50;99.90;;;;;;4992101;28;20211;-90
2022/02/04 07:43:29;;;;;;;52.83;32.13;;;2.50;99.90;;;;;;4989384;28;20262;-90
2022/02/04 07:45:57;;;;;;;53.78;36.38;;;2.50;99.90;;;;;;4980173;28;20220;-90
2022/02/04 07:48:23;;;;;;;48.85;34.22;;;2.50;99.90;;;;;;4990828;28;20192;-92
2022/02/04 07:50:50;;;;;;;49.90;33.30;;;2.60;99.90;;;;;;4999249;28;20191;-93
2022/02/04 07:53:17;;;;;;;46.97;31.55;;;2.60;99.90;;;;;;5003746;28;20192;-92
2022/02/04 07:55:43;;;;;;;48.35;30.50;;;2.60;99.90;;;;;;4992369;28;20226;-92
2022/02/04 07:58:11;;;;;;;48.22;34.30;;;2.70;99.90;;;;;;4993065;28;20584;-88
2022/02/04 08:00:39;;;;;;;46.53;32.40;;;2.80;99.90;;;;;;4990299;28;20196;-89
2022/02/04 08:06:10;;;;;;;50.38;30.90;;;3.00;99.90;;;;;;4987253;28;20215;-88
2022/02/04 08:34:57;;;;;;;40.80;24.60;;;6.40;99.90;;;;;;4990936;28;20232;-88
2022/02/04 08:54:15;;;;;;;24.65;19.08;;;10.70;99.90;;;;;;5001773;28;20812;-92
2022/02/04 08:56:39;;;;;;;25.75;17.58;;;11.00;99.90;;;;;;4989548;28;20219;-91
2022/02/04 08:59:15;;;;;;;20.98;16.77;;;11.40;99.90;;;;;;4992509;28;20459;-92
2022/02/04 09:01:49;;;;;;;20.42;14.88;;;11.40;99.90;;;;;;4978376;28;20184;-90
2022/02/04 09:04:18;;;;;;;24.75;18.80;;;11.00;99.60;;;;;;4996049;28;20206;-87
2022/02/04 09:07:01;;;;;;;25.27;17.77;;;10.40;99.90;;;;;;4994396;28;20207;-87
2022/02/04 09:09:51;;;;;;;23.88;20.25;;;9.60;99.90;;;;;;4997707;28;20589;-88
2022/02/04 09:16:50;;;;;;;26.25;20.60;;;8.90;99.90;;;;;;4994928;28;20188;-90
2022/02/04 09:23:11;;;;;;;26.88;18.25;;;7.80;99.90;;;;;;5003437;28;20183;-92
2022/02/04 09:25:37;;;;;;;24.05;18.00;;;7.70;99.90;;;;;;4990047;28;20258;-90
2022/02/04 09:28:05;;;;;;;26.60;18.40;;;7.60;99.90;;;;;;5002302;28;20665;-91
2022/02/04 09:30:31;;;;;;;26.38;20.13;;;7.60;99.90;;;;;;4993689;28;20208;-88
2022/02/04 09:32:57;;;;;;;28.48;20.10;;;7.90;99.90;;;;;;4979425;28;20212;-87
2022/02/04 09:35:24;;;;;;;25.70;17.55;;;8.30;99.90;;;;;;4992663;28;20229;-89
2022/02/04 09:37:52;;;;;;;30.55;19.65;;;8.70;99.90;;;;;;4994220;28;20180;-88
2022/02/04 09:40:18;;;;;;;21.83;13.90;;;9.00;99.90;;;;;;4992456;28;20217;-89
2022/02/04 09:42:45;;;;;;;19.75;15.82;;;9.00;99.90;;;;;;4994796;28;20227;-90
2022/02/04 09:45:14;;;;;;;20.20;13.02;;;8.80;99.90;;;;;;4985937;28;20219;-89
2022/02/04 09:47:42;;;;;;;21.13;15.25;;;8.50;99.90;;;;;;4993405;28;20226;-87
2022/02/04 09:50:16;;;;;;;19.80;14.85;;;8.20;99.90;;;;;;4992814;28;20245;-91
2022/02/04 10:15:54;;;;;;;21.70;14.57;;;8.10;99.90;;;;;;4993040;28;20282;-91
2022/02/04 10:18:31;;;;;;;20.35;14.15;;;8.10;99.90;;;;;;4999550;28;20184;-89
2022/02/04 10:21:06;;;;;;;15.00;11.45;;;8.20;99.90;;;;;;5000401;28;20205;-89
2022/02/04 10:23:50;;;;;;;15.90;11.35;;;8.30;99.90;;;;;;4990612;28;20185;-89
2022/02/04 10:26:17;;;;;;;22.58;12.82;;;8.40;99.90;;;;;;5002269;28;20716;-90
2022/02/04 10:28:44;;;;;;;16.77;12.77;;;8.50;99.90;;;;;;4990578;28;20282;-89
2022/02/04 10:31:18;;;;;;;19.08;12.23;;;8.60;99.90;;;;;;5000908;28;20200;-89
2022/02/04 10:33:58;;;;;;;23.80;15.60;;;8.60;99.90;;;;;;4994247;28;20251;-90
2022/02/04 10:36:35;;;;;;;27.33;20.23;;;8.50;99.90;;;;;;4980078;28;20235;-89
2022/02/04 10:39:28;;;;;;;27.02;17.73;;;8.70;99.90;;;;;;4993170;28;20326;-88
2022/02/04 10:42:15;;;;;;;25.98;15.70;;;8.70;99.90;;;;;;4984830;28;20252;-90
2022/02/04 10:50:39;;;;;;;19.83;13.90;;;9.10;99.90;;;;;;4992717;28;20294;-88
2022/02/04 10:53:35;;;;;;;16.40;12.88;;;9.20;99.60;;;;;;4981228;28;20180;-87
2022/02/04 11:01:14;;;;;;;18.77;14.13;;;8.70;99.90;;;;;;4992561;28;20214;-88
2022/02/04 11:03:47;;;;;;;22.08;13.10;;;8.60;99.90;;;;;;4993357;28;20660;-89
2022/02/04 11:06:32;;;;;;;21.27;13.60;;;8.50;99.90;;;;;;4992108;28;20204;-89
2022/02/04 11:33:47;;;;;;;17.75;11.98;;;9.60;99.00;;;;;;4988487;28;20188;-90
2022/02/04 11:36:35;;;;;;;19.70;13.18;;;9.80;99.00;;;;;;4992591;28;20259;-90
2022/02/04 11:53:55;;;;;;;22.45;15.20;;;10.40;97.10;;;;;;4990581;28;20205;-89
2022/02/04 11:56:22;;;;;;;23.80;14.80;;;10.30;96.70;;;;;;5001099;28;20700;-91
2022/02/04 11:59:05;;;;;;;22.52;13.63;;;10.20;97.20;;;;;;4985508;28;20191;-91
2022/02/04 12:01:44;;;;;;;18.63;12.30;;;10.20;96.70;;;;;;5003950;28;20558;-91
2022/02/04 12:04:20;;;;;;;15.27;10.55;;;10.20;97.00;;;;;;4990431;28;20654;-92
2022/02/04 12:06:47;;;;;;;17.88;13.00;;;10.20;96.60;;;;;;4984829;28;20190;-91
2022/02/04 12:09:35;;;;;;;20.02;12.85;;;10.20;96.90;;;;;;4993889;28;20207;-90
2022/02/04 12:12:02;;;;;;;14.50;10.60;;;10.30;97.40;;;;;;4984598;28;20270;-89
2022/02/04 12:14:32;;;;;;;18.35;12.90;;;10.30;97.10;;;;;;4989693;28;20298;-89
2022/02/04 12:17:07;;;;;;;19.10;13.50;;;10.30;96.90;;;;;;4986809;28;20180;-90
2022/02/04 12:19:43;;;;;;;15.15;12.82;;;10.40;96.70;;;;;;4991689;28;20246;-90
2022/02/04 12:22:11;;;;;;;20.75;13.50;;;10.40;96.50;;;;;;4997823;28;20365;-90
2022/02/04 12:24:39;;;;;;;18.27;12.93;;;10.50;96.60;;;;;;4988578;28;20212;-94
2022/02/04 12:27:25;;;;;;;20.20;13.50;;;10.50;96.40;;;;;;4992734;28;20222;-91
2022/02/04 12:29:51;;;;;;;16.42;13.02;;;10.40;96.90;;;;;;4989366;28;20211;-89
2022/02/04 12:32:20;;;;;;;17.93;13.53;;;10.50;96.90;;;;;;4990854;28;20177;-92
2022/02/04 12:34:47;;;;;;;22.23;13.32;;;10.50;96.50;;;;;;4993610;28;20231;-91
2022/02/04 12:37:16;;;;;;;16.42;12.30;;;10.50;96.80;;;;;;4999181;28;20210;-90
2022/02/04 12:39:48;;;;;;;15.30;12.00;;;10.50;96.60;;;;;;4998452;28;20230;-92
2022/02/04 12:42:17;;;;;;;20.33;12.98;;;10.60;96.60;;;;;;5002949;28;20532;-91
2022/02/04 12:44:44;;;;;;;18.85;15.40;;;10.70;96.70;;;;;;5016251;28;20207;-89
2022/02/04 12:47:20;;;;;;;23.13;12.38;;;10.80;96.70;;;;;;5024736;28;20175;-89
2022/02/04 12:49:48;;;;;;;22.52;13.80;;;10.90;95.40;;;;;;5002409;28;20214;-91
2022/02/04 12:54:59;;;;;;;16.52;12.48;;;10.80;95.30;;;;;;4995268;28;20227;-90
2022/02/04 12:57:34;;;;;;;17.05;13.18;;;10.70;95.30;;;;;;4991377;28;20188;-88
2022/02/04 13:03:20;;;;;;;17.30;12.80;;;10.50;95.70;;;;;;4987855;28;20184;-91
2022/02/04 13:11:08;;;;;;;20.60;14.25;;;10.30;95.30;;;;;;4994211;28;20253;-90
2022/02/04 13:13:43;;;;;;;17.35;12.13;;;10.20;95.60;;;;;;4993722;28;20188;-88
2022/02/04 13:16:21;;;;;;;18.55;14.27;;;10.10;95.80;;;;;;4992454;28;20246;-89
2022/02/04 13:18:47;;;;;;;17.60;14.15;;;10.00;95.90;;;;;;5004146;28;20180;-91
2022/02/04 13:21:13;;;;;;;15.30;10.52;;;10.00;96.50;;;;;;4995165;28;20198;-91
2022/02/04 13:23:40;;;;;;;31.52;21.23;;;10.00;96.70;;;;;;4992178;28;20246;-93
2022/02/04 13:26:07;;;;;;;18.25;13.05;;;9.90;96.80;;;;;;4994590;28;20204;-95
2022/02/04 13:28:37;;;;;;;24.30;17.02;;;10.00;97.10;;;;;;4986291;28;20210;-93
2022/02/04 13:31:06;;;;;;;26.90;17.38;;;10.10;96.90;;;;;;4993350;28;20305;-94
2022/02/04 13:33:44;;;;;;;27.70;18.27;;;10.20;96.90;;;;;;4992942;28;20180;-93
2022/02/04 13:36:28;;;;;;;23.63;18.48;;;10.30;96.90;;;;;;4993293;28;20219;-88
2022/02/04 13:42:25;;;;;;;21.23;14.88;;;10.30;97.30;;;;;;4929489;29;20181;-90
2022/02/04 13:45:12;;;;;;;19.85;14.50;;;10.20;97.50;;;;;;4943671;29;20217;-91
2022/02/04 13:47:57;;;;;;;22.13;16.42;;;10.20;97.70;;;;;;4968794;28;20200;-90
2022/02/04 13:50:37;;;;;;;23.67;16.65;;;10.10;98.00;;;;;;4991010;28;20224;-90
2022/02/04 13:53:34;;;;;;;22.55;17.70;;;10.10;98.50;;;;;;4992511;28;20184;-88
2022/02/04 13:56:18;;;;;;;19.83;15.45;;;10.20;98.90;;;;;;4981500;28;20228;-89
2022/02/04 14:01:18;;;;;;;23.73;18.13;;;10.40;99.00;;;;;;4974736;28;20575;-87
2022/02/04 14:03:54;;;;;;;23.75;18.60;;;10.50;99.10;;;;;;4990252;28;20191;-89
2022/02/04 14:06:26;;;;;;;26.73;19.33;;;10.70;98.80;;;;;;4982218;28;20717;-87
2022/02/04 14:11:33;;;;;;;25.00;17.13;;;11.00;99.30;;;;;;4983045;28;20637;-88
2022/02/04 14:14:03;;;;;;;31.90;20.17;;;11.10;99.40;;;;;;4983242;28;20185;-90
2022/02/04 14:16:28;;;;;;;27.13;18.77;;;11.20;99.60;;;;;;4976441;28;20263;-87
2022/02/04 14:18:54;;;;;;;24.90;18.70;;;11.30;99.50;;;;;;4976521;28;20215;-87
2022/02/04 14:21:20;;;;;;;27.47;19.97;;;11.30;99.50;;;;;;4975214;28;20677;-88
2022/02/04 14:23:50;;;;;;;30.13;19.25;;;11.30;99.60;;;;;;4992548;28;20920;-88
2022/02/04 14:26:23;;;;;;;29.55;18.92;;;11.40;99.50;;;;;;5010462;28;20200;-88
2022/02/04 14:31:22;;;;;;;20.77;16.70;;;11.40;99.30;;;;;;5002114;28;20199;-91
2022/02/04 14:52:40;;;;;;;31.48;21.58;;;11.30;98.60;;;;;;4995482;28;20194;-91
2022/02/04 15:00:49;;;;;;;34.50;25.77;;;11.70;98.60;;;;;;4995123;28;20257;-90
2022/02/04 15:03:21;;;;;;;24.92;18.35;;;11.90;98.40;;;;;;4982528;28;20226;-91
2022/02/04 15:06:01;;;;;;;25.90;19.47;;;12.00;98.00;;;;;;4999970;28;20203;-90
2022/02/04 15:08:29;;;;;;;50.10;38.30;;;12.00;98.10;;;;;;4993293;28;20440;-91
2022/02/04 15:10:58;;;;;;;32.00;23.77;;;12.00;98.00;;;;;;4992428;28;20476;-91
2022/02/04 15:13:24;;;;;;;36.70;25.65;;;12.00;97.90;;;;;;4991048;28;20187;-90
2022/02/04 15:15:50;;;;;;;32.60;21.53;;;11.90;97.90;;;;;;4991467;28;20230;-91
2022/02/04 15:18:16;;;;;;;27.50;19.30;;;11.80;98.20;;;;;;4990989;28;20429;-90
2022/02/04 15:20:42;;;;;;;25.53;18.30;;;11.50;98.50;;;;;;4990927;28;20196;-90
2022/02/04 15:23:11;;;;;;;24.30;19.65;;;11.30;98.90;;;;;;4990424;28;20406;-90
2022/02/04 15:25:38;;;;;;;28.63;22.02;;;11.10;99.30;;;;;;4990788;28;20234;-90
2022/02/04 15:30:34;;;;;;;28.35;20.92;;;10.70;99.90;;;;;;4993108;28;20196;-91
2022/02/04 15:33:00;;;;;;;32.25;23.25;;;10.50;99.90;;;;;;4988385;28;20195;-90
2022/02/04 15:35:28;;;;;;;32.63;21.17;;;10.40;99.90;;;;;;4975440;28;20223;-91
2022/02/04 15:37:54;;;;;;;29.38;21.38;;;10.20;99.90;;;;;;5008374;28;20188;-91
2022/02/04 15:40:19;;;;;;;27.63;20.30;;;10.10;99.90;;;;;;4992390;28;20266;-90
2022/02/04 15:42:54;;;;;;;30.67;20.77;;;10.00;99.90;;;;;;4993351;28;20183;-91
2022/02/04 15:50:56;;;;;;;30.95;21.83;;;9.70;99.90;;;;;;4992566;28;20207;-90
2022/02/04 15:53:32;;;;;;;31.55;22.08;;;9.60;99.90;;;;;;4998414;28;20431;-90
2022/02/04 16:04:21;;;;;;;50.70;41.15;;;9.20;99.90;;;;;;4988841;28;20668;-90
2022/02/04 16:06:48;;;;;;;48.92;36.90;;;9.10;99.90;;;;;;4987514;28;20180;-91
2022/02/04 16:09:15;;;;;;;48.00;34.80;;;9.00;99.90;;;;;;4986461;28;20314;-91
2022/02/04 16:11:53;;;;;;;48.78;36.35;;;8.90;99.90;;;;;;4987588;28;20183;-90
2022/02/04 16:17:18;;;;;;;45.47;34.90;;;8.70;99.90;;;;;;4979679;28;20195;-90
2022/02/04 16:20:05;;;;;;;52.60;38.40;;;8.60;99.90;;;;;;4994543;28;20708;-90
2022/02/04 16:25:43;;;;;;;44.40;31.80;;;8.40;99.90;;;;;;4997337;28;20211;-90
2022/02/04 16:30:29;;;;;;;35.13;25.50;;;8.20;99.90;;;;;;4997399;28;20210;-91
2022/02/04 16:32:54;;;;;;;36.25;25.48;;;8.10;99.90;;;;;;4997166;28;20191;-90
2022/02/04 16:35:22;;;;;;;34.47;24.90;;;8.10;99.90;;;;;;4992562;28;20217;-90
2022/02/04 16:38:00;;;;;;;39.13;25.63;;;8.00;99.90;;;;;;4995940;28;20184;-90
2022/02/04 16:40:26;;;;;;;32.83;26.02;;;7.90;99.90;;;;;;5003873;28;20212;-89
2022/02/04 16:42:52;;;;;;;37.28;26.70;;;7.90;99.90;;;;;;4993426;28;20187;-88
2022/02/04 16:45:17;;;;;;;35.70;27.10;;;7.80;99.90;;;;;;4991398;28;20215;-89
2022/02/04 16:47:43;;;;;;;33.80;25.97;;;7.80;99.90;;;;;;4993309;28;20534;-89
2022/02/04 16:50:10;;;;;;;36.87;26.57;;;7.70;99.90;;;;;;4991453;28;20204;-88
2022/02/04 16:52:35;;;;;;;36.75;27.70;;;7.70;99.90;;;;;;4982981;28;20192;-90
2022/02/04 16:55:03;;;;;;;41.57;28.47;;;7.60;99.90;;;;;;4980870;28;20342;-90
2022/02/04 16:57:28;;;;;;;49.17;32.00;;;7.60;99.90;;;;;;5001023;28;20630;-90
2022/02/04 17:00:19;;;;;;;53.23;35.77;;;7.50;99.90;;;;;;4995382;28;20506;-91
2022/02/04 17:02:42;;;;;;;54.65;33.50;;;7.50;99.90;;;;;;4994918;28;20191;-90
2022/02/04 17:05:10;;;;;;;39.90;28.00;;;7.50;99.90;;;;;;4996303;28;20203;-91
2022/02/04 17:07:38;;;;;;;46.47;29.70;;;7.40;99.90;;;;;;4997489;28;20217;-90
2022/02/04 17:10:05;;;;;;;42.13;29.83;;;7.40;99.90;;;;;;4996015;28;20247;-91
2022/02/04 17:12:41;;;;;;;43.72;30.83;;;7.30;99.90;;;;;;4996814;28;20175;-90
2022/02/04 17:15:10;;;;;;;42.85;32.28;;;7.30;99.90;;;;;;5007792;28;20583;-90
2022/02/04 17:17:36;;;;;;;49.45;33.70;;;7.20;99.90;;;;;;4997089;28;20180;-90
2022/02/04 17:20:07;;;;;;;51.15;37.60;;;7.20;99.90;;;;;;4994747;28;20587;-90
2022/02/04 17:22:35;;;;;;;53.00;38.00;;;7.10;99.90;;;;;;4995273;28;20188;-89
2022/02/04 17:25:07;;;;;;;52.20;38.38;;;7.00;99.90;;;;;;4995462;28;20218;-90
2022/02/04 17:27:33;;;;;;;79.18;52.50;;;7.00;99.90;;;;;;4996140;28;20164;-89
2022/02/04 17:29:59;;;;;;;73.77;48.77;;;6.90;99.90;;;;;;4996245;28;20549;-89
2022/02/04 17:32:26;;;;;;;73.90;51.13;;;6.90;99.90;;;;;;4996516;28;20410;-89
2022/02/04 17:34:52;;;;;;;71.53;46.33;;;6.80;99.90;;;;;;4994275;28;20973;-90
2022/02/04 17:37:18;;;;;;;62.25;40.40;;;6.70;99.90;;;;;;4996582;28;20180;-89
2022/02/04 17:39:44;;;;;;;50.92;38.65;;;6.70;99.90;;;;;;4980535;28;20247;-89
2022/02/04 17:42:10;;;;;;;57.33;38.47;;;6.60;99.90;;;;;;4996365;28;20183;-92
2022/02/04 17:44:36;;;;;;;63.87;43.07;;;6.60;99.90;;;;;;4996259;28;20212;-90
2022/02/04 17:47:04;;;;;;;68.10;45.90;;;6.60;99.90;;;;;;4999509;28;20517;-91
2022/02/04 17:49:41;;;;;;;64.72;42.25;;;6.60;99.90;;;;;;5016036;28;20449;-90
2022/02/04 17:52:23;;;;;;;63.25;42.70;;;6.60;99.90;;;;;;5011316;28;20190;-89
2022/02/04 17:57:31;;;;;;;71.22;44.75;;;6.70;99.90;;;;;;4996937;28;20198;-89
2022/02/04 18:00:18;;;;;;;71.85;45.30;;;6.70;99.90;;;;;;4979154;28;20219;-90
2022/02/04 18:02:59;;;;;;;68.93;45.15;;;6.70;99.90;;;;;;4993176;28;20687;-91
2022/02/04 18:05:39;;;;;;;67.63;47.08;;;6.70;99.90;;;;;;4990495;28;20216;-92
2022/02/04 18:08:04;;;;;;;62.33;40.80;;;6.60;99.90;;;;;;4994677;28;20196;-90
2022/02/04 18:10:32;;;;;;;66.33;45.80;;;6.60;99.90;;;;;;4997376;28;20354;-89
2022/02/04 18:12:57;;;;;;;65.45;45.22;;;6.60;99.90;;;;;;4995860;28;20248;-88
2022/02/04 18:15:24;;;;;;;88.30;58.37;;;6.60;99.90;;;;;;4998875;28;20242;-87
2022/02/04 18:17:50;;;;;;;62.20;43.80;;;6.60;99.90;;;;;;4992134;28;20227;-91
2022/02/04 18:20:20;;;;;;;63.77;42.50;;;6.60;99.90;;;;;;4998871;28;20211;-91
2022/02/04 18:22:46;;;;;;;62.97;42.40;;;6.60;99.90;;;;;;4995053;28;20501;-90
2022/02/04 18:25:12;;;;;;;64.67;42.33;;;6.60;99.90;;;;;;4991376;28;20721;-88
2022/02/04 18:27:38;;;;;;;66.03;40.53;;;6.60;99.90;;;;;;4991043;28;20258;-87
2022/02/04 18:30:06;;;;;;;76.32;44.95;;;6.60;99.90;;;;;;4990712;28;20669;-90
2022/02/04 18:32:34;;;;;;;73.63;42.22;;;6.60;99.90;;;;;;4991217;28;20275;-89
2022/02/04 18:35:02;;;;;;;81.43;48.20;;;6.50;99.90;;;;;;4991032;28;20274;-89
2022/02/04 18:37:41;;;;;;;69.10;46.88;;;6.50;99.90;;;;;;4991794;28;20271;-90
2022/02/04 18:40:29;;;;;;;85.45;51.95;;;6.50;99.90;;;;;;4993389;28;20200;-88
2022/02/04 18:45:27;;;;;;;65.30;47.40;;;6.60;99.90;;;;;;4998679;28;20207;-88
2022/02/04 18:48:02;;;;;;;71.22;44.13;;;6.50;99.90;;;;;;4996617;28;20713;-89
2022/02/04 18:53:24;;;;;;;87.75;57.25;;;6.50;99.90;;;;;;4996166;28;20230;-89